createdAt,value
2022-10-23T11:01:39.959Z,14.08
2022-10-23T11:04:22.510Z,14.19
2022-10-23T11:06:54.158Z,14.23
2022-10-23T11:09:25.349Z,14.26
2022-10-23T11:11:52.610Z,14.26
2022-10-23T11:14:23.028Z,14.26
2022-10-23T11:16:52.301Z,14.26
2022-10-23T11:19:29.915Z,14.28
2022-10-23T11:22:16.858Z,14.27
2022-10-23T11:25:02.406Z,14.26
2022-10-23T11:27:47.976Z,14.24
2022-10-23T11:30:42.888Z,14.19
2022-10-23T11:33:25.008Z,14.16
2022-10-23T11:35:57.539Z,14.15
2022-10-23T11:38:27.341Z,14.14
2022-10-23T11:40:58.918Z,14.13
2022-10-23T11:43:47.526Z,14.12
2022-10-23T11:46:29.824Z,14.10
2022-10-23T11:48:57.657Z,14.08
2022-10-23T11:51:33.933Z,14.08
2022-10-23T11:54:10.249Z,14.09
2022-10-23T11:56:38.771Z,14.10
2022-10-23T11:59:35.536Z,14.11
2022-10-23T12:02:34.171Z,14.10
2022-10-23T12:05:23.931Z,14.08
2022-10-23T12:07:56.782Z,14.07
2022-10-23T12:10:32.042Z,14.08
2022-10-23T12:13:04.996Z,14.10
2022-10-23T12:15:35.351Z,14.11
2022-10-23T12:18:15.164Z,14.12
2022-10-23T12:20:52.236Z,14.13
2022-10-23T12:23:33.652Z,14.13
2022-10-23T12:26:15.972Z,14.12
2022-10-23T12:28:49.419Z,14.14
2022-10-23T12:31:37.555Z,14.18
2022-10-23T12:34:26.196Z,14.19
2022-10-23T12:37:11.429Z,14.20
2022-10-23T12:39:40.264Z,14.20
2022-10-23T12:42:17.925Z,14.20
2022-10-23T12:44:45.048Z,14.19
2022-10-23T12:47:19.257Z,14.19
2022-10-23T12:49:50.802Z,14.19
2022-10-23T12:52:21.087Z,14.21
2022-10-23T12:54:50.954Z,14.22
2022-10-23T12:57:27.447Z,14.22
2022-10-23T13:00:03.015Z,14.21
2022-10-23T13:02:33.003Z,14.22
2022-10-23T13:05:03.918Z,14.23
2022-10-23T13:07:39.631Z,14.24
2022-10-23T13:10:07.671Z,14.25
2022-10-23T13:12:39.378Z,14.25
2022-10-23T13:15:06.642Z,14.27
2022-10-23T13:17:43.046Z,14.30
2022-10-23T13:20:23.797Z,14.35
2022-10-23T13:23:00.300Z,14.36
2022-10-23T13:25:31.417Z,14.38
2022-10-23T13:28:07.741Z,14.38
2022-10-23T13:30:42.219Z,14.40
2022-10-23T13:33:23.048Z,14.41
2022-10-23T13:36:02.735Z,14.40
2022-10-23T13:38:32.601Z,14.40
2022-10-23T13:41:01.598Z,14.40
2022-10-23T13:43:30.854Z,14.39
2022-10-23T13:46:01.685Z,14.39
2022-10-23T13:48:29.571Z,14.40
2022-10-23T13:51:12.765Z,14.41
2022-10-23T13:53:39.958Z,14.42
2022-10-23T13:56:07.837Z,14.42
2022-10-23T13:58:34.936Z,14.43
2022-10-23T14:01:02.398Z,14.43
2022-10-23T14:03:29.620Z,14.43
2022-10-23T14:05:56.758Z,14.44
2022-10-23T14:08:23.841Z,14.46
2022-10-23T14:10:50.945Z,14.47
2022-10-23T14:13:18.016Z,14.49
2022-10-23T14:15:45.130Z,14.49
2022-10-23T14:18:12.215Z,14.48
2022-10-23T14:20:39.527Z,14.47
2022-10-23T14:23:06.771Z,14.45
2022-10-23T14:25:33.916Z,14.44
2022-10-23T14:28:01.055Z,14.46
2022-10-23T14:30:28.248Z,14.45
2022-10-23T14:32:55.440Z,14.45
2022-10-23T14:35:22.681Z,14.44
2022-10-23T14:37:49.803Z,14.43
2022-10-23T14:40:17.113Z,14.42
2022-10-23T14:42:44.533Z,14.40
2022-10-23T14:45:11.961Z,14.39
2022-10-23T14:47:39.085Z,14.40
2022-10-23T14:50:06.917Z,14.40
2022-10-23T14:52:34.020Z,14.39
2022-10-23T14:55:01.864Z,14.39
2022-10-23T14:57:29.382Z,14.38
2022-10-23T14:59:56.582Z,14.36
2022-10-23T15:02:23.679Z,14.34
2022-10-23T15:04:50.796Z,14.33
2022-10-23T15:07:17.913Z,14.33
2022-10-23T15:09:45.019Z,14.33
2022-10-23T15:12:12.073Z,14.33
2022-10-23T15:14:39.096Z,14.32
2022-10-23T15:17:06.435Z,14.31
2022-10-23T15:19:33.595Z,14.28
2022-10-23T15:22:01.023Z,14.25
2022-10-23T15:24:28.135Z,14.22
2022-10-23T15:26:55.278Z,14.19
2022-10-23T15:29:23.094Z,14.19
2022-10-23T15:31:58.642Z,14.18
2022-10-23T15:34:28.527Z,14.17
2022-10-23T15:36:57.254Z,14.15
2022-10-23T15:39:26.730Z,14.13
2022-10-23T15:41:56.819Z,14.11
2022-10-23T15:44:26.795Z,14.08
2022-10-23T15:46:54.150Z,14.05
2022-10-23T15:49:21.321Z,14.03
2022-10-23T15:51:48.657Z,14.02
2022-10-23T15:54:19.160Z,14.00
2022-10-23T15:56:51.933Z,13.99
2022-10-23T15:59:21.278Z,13.97
2022-10-23T16:01:48.799Z,13.95
2022-10-23T16:04:16.491Z,13.92
2022-10-23T16:06:45.099Z,13.89
2022-10-23T16:09:12.613Z,13.86
2022-10-23T16:11:41.679Z,13.84
2022-10-23T16:14:13.100Z,13.83
2022-10-23T16:16:40.362Z,13.82
2022-10-23T16:19:07.891Z,13.80
2022-10-23T16:21:36.716Z,13.78
2022-10-23T16:24:06.691Z,13.76
2022-10-23T16:26:35.173Z,13.75
2022-10-23T16:29:05.972Z,13.72
2022-10-23T16:31:33.532Z,13.70
2022-10-23T16:34:02.711Z,13.70
2022-10-23T16:36:30.065Z,13.70
2022-10-23T16:39:16.829Z,13.69
2022-10-23T16:42:02.650Z,13.69
2022-10-23T16:44:44.391Z,13.69
2022-10-23T16:47:11.505Z,13.68
2022-10-23T16:49:38.690Z,13.66
2022-10-23T16:52:05.833Z,13.65
2022-10-23T16:54:33.041Z,13.63
2022-10-23T16:57:00.252Z,13.62
2022-10-23T16:59:27.365Z,13.63
2022-10-23T17:01:54.606Z,13.64
2022-10-23T17:04:21.855Z,13.65
2022-10-23T17:06:48.973Z,13.66
2022-10-23T17:09:17.156Z,13.65
2022-10-23T17:11:44.832Z,13.65
2022-10-23T17:14:18.001Z,13.65
2022-10-23T17:16:50.735Z,13.62
2022-10-23T17:19:40.047Z,13.62
2022-10-23T17:22:10.862Z,13.63
2022-10-23T17:24:39.800Z,13.64
2022-10-23T17:27:07.227Z,13.64
2022-10-23T17:29:35.004Z,13.64
2022-10-23T17:32:02.188Z,13.64
2022-10-23T17:34:29.287Z,13.62
2022-10-23T17:36:56.417Z,13.59
2022-10-23T17:39:26.312Z,13.58
2022-10-23T17:41:54.374Z,13.57
2022-10-23T17:44:21.502Z,13.57
2022-10-23T17:46:55.558Z,13.58
2022-10-23T17:49:24.295Z,13.58
2022-10-23T17:51:53.691Z,13.57
2022-10-23T17:54:20.879Z,13.57
2022-10-23T17:56:47.945Z,13.56
2022-10-23T17:59:17.509Z,13.55
2022-10-23T18:01:46.556Z,13.53
2022-10-23T18:04:14.825Z,13.53
2022-10-23T18:06:53.052Z,13.54
2022-10-23T18:09:21.895Z,13.55
2022-10-23T18:11:49.358Z,13.56
2022-10-23T18:14:18.691Z,13.57
2022-10-23T18:16:46.412Z,13.57
2022-10-23T18:19:14.827Z,13.57
2022-10-23T18:21:42.108Z,13.56
2022-10-23T18:24:10.121Z,13.55
2022-10-23T18:26:39.972Z,13.55
2022-10-23T18:29:08.677Z,13.56
2022-10-23T18:31:37.588Z,13.57
2022-10-23T18:34:14.993Z,13.58
2022-10-23T18:36:42.572Z,13.59
2022-10-23T18:39:13.346Z,13.59
2022-10-23T18:41:42.851Z,13.59
2022-10-23T18:44:14.186Z,13.58
2022-10-23T18:46:41.360Z,13.57
2022-10-23T18:49:08.644Z,13.57
2022-10-23T18:52:39.039Z,13.61
2022-10-23T18:55:07.923Z,13.41
2022-10-23T18:57:36.463Z,13.19
2022-10-23T19:00:06.627Z,12.97
2022-10-23T19:02:35.600Z,12.78
2022-10-23T19:05:04.107Z,12.62
2022-10-23T19:07:31.255Z,12.50
2022-10-23T19:09:58.365Z,12.41
2022-10-23T19:12:25.415Z,12.36
2022-10-23T19:14:54.929Z,12.31
2022-10-23T19:17:27.549Z,12.26
2022-10-23T19:20:03.716Z,12.21
2022-10-23T19:22:34.329Z,12.16
2022-10-23T19:25:15.206Z,12.14
2022-10-23T19:27:44.618Z,12.08
2022-10-23T19:30:13.849Z,12.06
2022-10-23T19:32:41.800Z,12.06
2022-10-23T19:35:09.930Z,12.05
2022-10-23T19:37:37.438Z,12.05
2022-10-23T19:40:06.781Z,12.06
2022-10-23T19:42:35.143Z,12.06
2022-10-23T19:45:02.205Z,12.04
2022-10-23T19:47:29.278Z,12.03
2022-10-23T19:49:56.485Z,12.03
2022-10-23T19:52:24.193Z,12.06
2022-10-23T19:54:51.554Z,12.11
2022-10-23T19:57:20.571Z,12.13
2022-10-23T19:59:53.003Z,12.18
2022-10-23T20:02:20.614Z,12.21
2022-10-23T20:04:47.854Z,12.23
2022-10-23T20:07:14.935Z,12.29
2022-10-23T20:09:42.050Z,12.33
2022-10-23T20:12:09.242Z,12.37
2022-10-23T20:14:36.354Z,12.39
2022-10-23T20:17:03.382Z,12.39
2022-10-23T20:19:30.590Z,12.39
2022-10-23T20:21:57.765Z,12.39
2022-10-23T20:24:24.837Z,12.39
2022-10-23T20:26:54.664Z,12.41
2022-10-23T20:29:22.763Z,12.44
2022-10-23T20:31:49.859Z,12.47
2022-10-23T20:34:17.504Z,12.51
2022-10-23T20:36:47.316Z,12.52
2022-10-23T20:39:18.235Z,12.53
2022-10-23T20:41:45.800Z,12.54
2022-10-23T20:46:45.268Z,12.54
2022-10-23T20:49:13.343Z,12.53
2022-10-23T20:51:40.735Z,12.53
2022-10-23T20:54:07.917Z,12.52
2022-10-23T20:56:37.324Z,12.53
2022-10-23T20:59:07.722Z,12.53
2022-10-23T21:01:35.298Z,12.53
2022-10-23T21:04:03.624Z,12.54
2022-10-23T21:06:45.895Z,12.53
2022-10-23T21:09:19.313Z,12.54
2022-10-23T21:11:46.573Z,12.52
2022-10-23T21:14:13.678Z,12.51
2022-10-23T21:16:44.362Z,12.47
2022-10-23T21:19:14.397Z,12.44
2022-10-23T21:21:42.030Z,12.45
2022-10-23T21:24:13.458Z,12.47
2022-10-23T21:26:40.691Z,12.48
2022-10-23T21:29:17.858Z,12.49
2022-10-23T21:31:50.926Z,12.50
2022-10-23T21:34:17.975Z,12.51
2022-10-23T21:37:10.925Z,12.52
2022-10-23T21:39:34.425Z,12.52
2022-10-23T21:42:01.548Z,12.49
2022-10-23T21:44:28.625Z,12.43
2022-10-23T21:46:55.654Z,12.41
2022-10-23T21:49:22.775Z,12.42
2022-10-23T21:51:49.916Z,12.41
2022-10-23T21:54:17.017Z,12.42
2022-10-23T21:56:48.600Z,12.43
2022-10-23T21:59:19.314Z,12.43
2022-10-23T22:01:48.127Z,12.44
2022-10-23T22:04:20.275Z,12.44
2022-10-23T22:06:49.803Z,12.41
2022-10-23T22:09:20.002Z,12.39
2022-10-23T22:11:50.273Z,12.35
2022-10-23T22:14:17.467Z,12.33
2022-10-23T22:16:44.650Z,12.33
2022-10-23T22:19:14.142Z,12.31
2022-10-23T22:21:41.595Z,12.30
2022-10-23T22:24:09.811Z,12.32
2022-10-23T22:26:39.908Z,12.32
2022-10-23T22:29:11.014Z,12.34
2022-10-23T22:31:39.531Z,12.33
2022-10-23T22:34:20.135Z,12.33
2022-10-23T22:36:57.371Z,12.32
2022-10-23T22:39:25.061Z,12.31
2022-10-23T22:41:52.473Z,12.32
2022-10-23T22:44:19.790Z,12.31
2022-10-23T22:46:46.998Z,12.31
2022-10-23T22:49:14.222Z,12.30
2022-10-23T22:51:41.357Z,12.30
2022-10-23T22:54:09.029Z,12.29
2022-10-23T22:56:36.229Z,12.27
2022-10-23T22:59:04.868Z,12.23
2022-10-23T23:01:42.657Z,12.18
2022-10-23T23:04:25.989Z,12.13
2022-10-23T23:06:59.562Z,12.09
2022-10-23T23:09:26.545Z,12.06
2022-10-23T23:11:53.580Z,12.04
2022-10-23T23:14:23.732Z,12.04
2022-10-23T23:16:53.225Z,12.05
2022-10-23T23:19:22.999Z,12.07
2022-10-23T23:21:50.649Z,12.09
2022-10-23T23:24:17.842Z,12.09
2022-10-23T23:26:44.838Z,12.07
2022-10-23T23:29:12.506Z,12.05
2022-10-23T23:31:39.674Z,12.03
2022-10-23T23:34:06.786Z,12.04
2022-10-23T23:36:34.081Z,12.03
2022-10-23T23:39:01.815Z,12.04
2022-10-23T23:41:29.328Z,12.01
2022-10-23T23:43:57.861Z,11.99
2022-10-23T23:46:25.813Z,11.97
2022-10-23T23:48:52.926Z,11.96
2022-10-23T23:51:25.140Z,11.97
2022-10-23T23:53:52.510Z,11.96
2022-10-23T23:56:20.363Z,11.96
2022-10-23T23:58:47.907Z,11.98
